Time;durP1;ratioP1;P1;durP2;ratioP2;P2;SDS_P1;SDS_P2;PMS_P1;PMS_P2;Temp;Humidity;BMP_temperature;BMP_pressure;BME280_temperature;BME280_humidity;BME280_pressure;Samples;Min_cycle;Max_cycle;Signal;HPM_P1;HPM_P2
2021/05/30 00:00:14;;;;;;;17.67;13.77;;;;;;;;;;5070901;28;20503;-51
2021/05/30 00:02:40;;;;;;;18.50;14.20;;;;;;;;;;5070672;28;21197;-51
2021/05/30 00:05:07;;;;;;;17.93;14.20;;;;;;;;;;5070778;28;20395;-51
2021/05/30 00:07:33;;;;;;;21.37;15.23;;;;;;;;;;5071026;28;20400;-51
2021/05/30 00:09:59;;;;;;;20.70;13.40;;;;;;;;;;5070960;28;20760;-51
2021/05/30 00:12:25;;;;;;;18.80;14.10;;;;;;;;;;5070782;28;20404;-51
2021/05/30 00:14:51;;;;;;;18.30;14.10;;;;;;;;;;5070683;28;20428;-51
2021/05/30 00:17:17;;;;;;;18.17;14.23;;;;;;;;;;5071043;28;20442;-51
2021/05/30 00:19:43;;;;;;;21.83;14.03;;;;;;;;;;5070813;28;20417;-51
2021/05/30 00:22:09;;;;;;;24.67;14.77;;;;;;;;;;5070840;28;20737;-51
2021/05/30 00:24:36;;;;;;;19.77;14.90;;;;;;;;;;5070826;28;20418;-51
2021/05/30 00:27:02;;;;;;;18.23;13.97;;;;;;;;;;5070830;28;20544;-51
2021/05/30 00:29:28;;;;;;;19.57;14.20;;;;;;;;;;5070876;28;20509;-51
2021/05/30 00:31:54;;;;;;;24.10;15.00;;;;;;;;;;5070510;28;20455;-51
2021/05/30 00:34:20;;;;;;;24.70;15.73;;;;;;;;;;5070719;28;20418;-51
2021/05/30 00:36:46;;;;;;;20.23;16.43;;;;;;;;;;5070707;28;20404;-51
2021/05/30 00:39:12;;;;;;;20.30;14.50;;;;;;;;;;5070693;28;20421;-51
2021/05/30 00:41:38;;;;;;;20.67;15.80;;;;;;;;;;5070468;28;20450;-51
2021/05/30 00:44:18;;;;;;;19.03;16.10;;;;;;;;;;5070648;28;20909;-51
2021/05/30 00:46:44;;;;;;;25.43;15.97;;;;;;;;;;5070486;28;21037;-51
2021/05/30 00:49:10;;;;;;;24.20;16.00;;;;;;;;;;5070637;28;20452;-51
2021/05/30 00:51:36;;;;;;;23.97;15.90;;;;;;;;;;5070375;28;20885;-51
2021/05/30 00:54:02;;;;;;;30.07;16.63;;;;;;;;;;5070643;28;20772;-51
2021/05/30 00:56:28;;;;;;;21.27;15.53;;;;;;;;;;5070609;28;20409;-51
2021/05/30 00:58:53;;;;;;;23.83;16.87;;;;;;;;;;5070795;28;20424;-51
2021/05/30 01:01:19;;;;;;;23.00;16.63;;;;;;;;;;5070206;28;20447;-51
2021/05/30 01:03:45;;;;;;;23.50;15.70;;;;;;;;;;5070057;28;20412;-51
2021/05/30 01:06:11;;;;;;;23.40;18.50;;;;;;;;;;5070180;28;20454;-51
2021/05/30 01:08:37;;;;;;;25.30;17.80;;;;;;;;;;5073258;28;20420;-51
2021/05/30 01:11:05;;;;;;;22.40;16.03;;;;;;;;;;5073584;28;20495;-51
2021/05/30 01:13:33;;;;;;;25.90;17.40;;;;;;;;;;5074154;28;20404;-51
2021/05/30 01:15:59;;;;;;;25.00;16.60;;;;;;;;;;5074638;28;20412;-51
2021/05/30 01:18:26;;;;;;;24.57;16.37;;;;;;;;;;5074362;28;20424;-51
2021/05/30 01:20:54;;;;;;;25.77;18.93;;;;;;;;;;5074423;28;20820;-51
2021/05/30 01:23:21;;;;;;;22.17;16.50;;;;;;;;;;5074122;28;20413;-51
2021/05/30 01:25:47;;;;;;;23.47;17.23;;;;;;;;;;5074186;28;20982;-51
2021/05/30 01:28:14;;;;;;;22.43;17.00;;;;;;;;;;5074105;28;20452;-51
2021/05/30 01:30:41;;;;;;;23.33;16.90;;;;;;;;;;5074235;28;20389;-51
2021/05/30 01:33:07;;;;;;;24.97;17.40;;;;;;;;;;5072777;28;20748;-51
2021/05/30 01:35:33;;;;;;;28.00;18.40;;;;;;;;;;5074052;28;20479;-51
2021/05/30 01:37:59;;;;;;;23.30;17.00;;;;;;;;;;5073800;28;20917;-51
2021/05/30 01:40:25;;;;;;;24.60;16.83;;;;;;;;;;5074035;28;20408;-51
2021/05/30 01:42:53;;;;;;;19.83;15.97;;;;;;;;;;5073584;28;20399;-51
2021/05/30 01:45:21;;;;;;;23.13;16.70;;;;;;;;;;5073788;28;20449;-51
2021/05/30 01:47:47;;;;;;;21.60;15.93;;;;;;;;;;5073691;28;20435;-51
2021/05/30 01:50:17;;;;;;;18.83;16.73;;;;;;;;;;5073878;28;20401;-52
2021/05/30 01:52:43;;;;;;;23.07;17.63;;;;;;;;;;5073363;28;20404;-51
2021/05/30 01:55:18;;;;;;;23.27;16.97;;;;;;;;;;5073592;28;20819;-51
2021/05/30 01:57:45;;;;;;;25.30;19.10;;;;;;;;;;5073499;28;20472;-51
2021/05/30 02:00:12;;;;;;;23.37;17.67;;;;;;;;;;5073614;28;20499;-51
2021/05/30 02:02:38;;;;;;;23.20;18.63;;;;;;;;;;5073941;28;20866;-51
2021/05/30 02:05:04;;;;;;;23.23;18.40;;;;;;;;;;5073347;28;20400;-51
2021/05/30 02:07:32;;;;;;;24.67;17.80;;;;;;;;;;5073400;28;20405;-50
2021/05/30 02:09:58;;;;;;;23.03;17.63;;;;;;;;;;5073359;28;20396;-50
2021/05/30 02:12:25;;;;;;;27.87;19.07;;;;;;;;;;5073276;28;20476;-50
2021/05/30 02:14:51;;;;;;;30.07;20.33;;;;;;;;;;5073203;28;21122;-50
2021/05/30 02:17:19;;;;;;;26.63;19.10;;;;;;;;;;5073374;28;20475;-51
2021/05/30 02:19:45;;;;;;;26.30;19.30;;;;;;;;;;5072247;28;20479;-51
2021/05/30 02:22:11;;;;;;;26.73;18.60;;;;;;;;;;5073003;28;20924;-51
2021/05/30 02:24:37;;;;;;;27.00;20.10;;;;;;;;;;5072990;28;20408;-51
2021/05/30 02:27:03;;;;;;;27.60;18.70;;;;;;;;;;5073089;28;20499;-51
2021/05/30 02:29:39;;;;;;;26.13;18.63;;;;;;;;;;5072916;28;20737;-51
2021/05/30 02:32:06;;;;;;;25.30;19.60;;;;;;;;;;5072843;28;20795;-50
2021/05/30 02:34:32;;;;;;;27.13;19.47;;;;;;;;;;5072608;28;20458;-51
2021/05/30 02:36:58;;;;;;;26.93;19.67;;;;;;;;;;5073075;28;20416;-51
2021/05/30 02:39:24;;;;;;;25.97;18.63;;;;;;;;;;5072726;28;20503;-50
2021/05/30 02:41:51;;;;;;;25.90;19.80;;;;;;;;;;5072693;28;20500;-51
2021/05/30 02:44:17;;;;;;;29.33;20.80;;;;;;;;;;5072627;28;20412;-50
2021/05/30 02:46:43;;;;;;;26.97;17.47;;;;;;;;;;5072757;28;20577;-51
2021/05/30 02:49:08;;;;;;;25.53;19.37;;;;;;;;;;5072555;28;20519;-51
2021/05/30 02:51:35;;;;;;;26.40;18.77;;;;;;;;;;5072331;28;20397;-51
2021/05/30 02:54:01;;;;;;;30.20;19.27;;;;;;;;;;5072557;28;20396;-51
2021/05/30 02:56:28;;;;;;;27.83;19.20;;;;;;;;;;5072487;28;20416;-50
2021/05/30 02:58:54;;;;;;;27.10;18.43;;;;;;;;;;5072410;28;20420;-52
2021/05/30 03:01:20;;;;;;;23.67;18.10;;;;;;;;;;5072093;28;20400;-51
2021/05/30 03:03:47;;;;;;;27.77;19.03;;;;;;;;;;5072312;28;20400;-52
2021/05/30 03:06:13;;;;;;;23.80;17.80;;;;;;;;;;5072228;28;20451;-51
2021/05/30 03:08:41;;;;;;;27.73;19.37;;;;;;;;;;5072349;28;20505;-51
2021/05/30 03:11:07;;;;;;;27.47;18.93;;;;;;;;;;5072216;28;20402;-51
2021/05/30 03:13:33;;;;;;;28.70;20.30;;;;;;;;;;5072117;28;20458;-51
2021/05/30 03:15:59;;;;;;;25.97;18.57;;;;;;;;;;5072209;28;20765;-51
2021/05/30 03:18:25;;;;;;;24.70;18.10;;;;;;;;;;5072350;28;20420;-51
2021/05/30 03:20:51;;;;;;;24.27;17.57;;;;;;;;;;5072275;28;20408;-51
2021/05/30 03:23:17;;;;;;;29.13;18.60;;;;;;;;;;5072168;28;20916;-51
2021/05/30 03:25:43;;;;;;;29.13;18.47;;;;;;;;;;5072091;28;20448;-51
2021/05/30 03:28:10;;;;;;;26.63;19.27;;;;;;;;;;5071968;28;20865;-51
2021/05/30 03:30:36;;;;;;;24.27;18.47;;;;;;;;;;5072052;28;20397;-51
2021/05/30 03:33:02;;;;;;;24.80;17.33;;;;;;;;;;5071455;28;20428;-51
2021/05/30 03:35:28;;;;;;;27.27;19.90;;;;;;;;;;5071797;28;20515;-51
2021/05/30 03:37:56;;;;;;;25.43;17.90;;;;;;;;;;5071595;28;20444;-50
2021/05/30 03:42:50;;;;;;;26.50;19.17;;;;;;;;;;5071370;28;20407;-51
2021/05/30 03:45:17;;;;;;;28.00;18.67;;;;;;;;;;5071535;28;20454;-51
2021/05/30 03:47:43;;;;;;;24.63;18.10;;;;;;;;;;5071364;28;20421;-51
2021/05/30 03:50:09;;;;;;;27.60;19.57;;;;;;;;;;5071558;28;20411;-51
2021/05/30 03:52:35;;;;;;;24.80;17.60;;;;;;;;;;5071224;28;20416;-51
2021/05/30 03:55:01;;;;;;;26.43;18.80;;;;;;;;;;5071449;28;20404;-51
2021/05/30 03:57:28;;;;;;;24.33;18.40;;;;;;;;;;5071187;28;21073;-51
2021/05/30 03:59:54;;;;;;;24.70;18.00;;;;;;;;;;5071309;28;20409;-51
2021/05/30 04:02:20;;;;;;;24.67;17.83;;;;;;;;;;5070890;28;20396;-52
2021/05/30 04:04:46;;;;;;;25.20;17.20;;;;;;;;;;5071316;28;20400;-51
2021/05/30 04:07:12;;;;;;;27.43;17.73;;;;;;;;;;5048575;28;20463;-51
2021/05/30 04:09:37;;;;;;;26.43;18.47;;;;;;;;;;5051123;28;20437;-50
2021/05/30 04:12:04;;;;;;;23.37;16.53;;;;;;;;;;5050882;28;20461;-51
2021/05/30 04:14:30;;;;;;;28.27;18.60;;;;;;;;;;5050907;28;20485;-51
2021/05/30 04:16:56;;;;;;;23.40;17.70;;;;;;;;;;5051174;28;20497;-51
2021/05/30 04:19:21;;;;;;;21.47;16.70;;;;;;;;;;5050844;28;20433;-51
2021/05/30 04:21:47;;;;;;;23.50;17.97;;;;;;;;;;5050827;28;20422;-51
2021/05/30 04:24:13;;;;;;;24.33;18.40;;;;;;;;;;5043097;28;20539;-51
2021/05/30 04:26:39;;;;;;;30.90;19.33;;;;;;;;;;5030899;28;20450;-51
2021/05/30 04:29:06;;;;;;;31.97;18.97;;;;;;;;;;5030780;28;20413;-52
2021/05/30 04:31:31;;;;;;;25.90;18.60;;;;;;;;;;5030700;28;20398;-51
2021/05/30 04:33:57;;;;;;;24.70;18.60;;;;;;;;;;5030628;28;20418;-51
2021/05/30 04:36:23;;;;;;;27.37;20.20;;;;;;;;;;5030964;28;20459;-51
2021/05/30 04:38:49;;;;;;;24.50;18.13;;;;;;;;;;5030744;28;20426;-51
2021/05/30 04:41:15;;;;;;;24.53;18.50;;;;;;;;;;5030611;28;20402;-51
2021/05/30 04:43:41;;;;;;;26.90;18.27;;;;;;;;;;5030173;28;20877;-51
2021/05/30 04:46:07;;;;;;;26.13;18.03;;;;;;;;;;5030610;28;20438;-51
2021/05/30 04:48:33;;;;;;;25.47;19.20;;;;;;;;;;5030604;28;20422;-51
2021/05/30 04:51:06;;;;;;;26.40;19.40;;;;;;;;;;5030693;28;20399;-51
2021/05/30 04:53:34;;;;;;;28.70;18.00;;;;;;;;;;5030579;28;20486;-51
2021/05/30 04:56:01;;;;;;;25.43;20.00;;;;;;;;;;5030567;28;20434;-51
2021/05/30 04:58:27;;;;;;;25.70;19.20;;;;;;;;;;5030630;28;20541;-52
2021/05/30 05:00:53;;;;;;;30.17;21.30;;;;;;;;;;5039207;28;20606;-52
2021/05/30 05:03:19;;;;;;;24.97;18.00;;;;;;;;;;5050340;28;20416;-51
2021/05/30 05:05:45;;;;;;;27.53;19.07;;;;;;;;;;5050416;28;20457;-51
2021/05/30 05:08:11;;;;;;;28.27;19.27;;;;;;;;;;5050523;28;20522;-52
2021/05/30 05:10:37;;;;;;;27.63;19.47;;;;;;;;;;5050448;28;20413;-51
2021/05/30 05:13:03;;;;;;;25.20;18.27;;;;;;;;;;5050314;28;20408;-51
2021/05/30 05:15:29;;;;;;;26.40;18.30;;;;;;;;;;5050476;28;20405;-51
2021/05/30 05:17:55;;;;;;;25.50;19.77;;;;;;;;;;5050448;28;20519;-51
2021/05/30 05:20:21;;;;;;;26.50;17.93;;;;;;;;;;5050252;28;20413;-51
2021/05/30 05:22:47;;;;;;;28.10;18.50;;;;;;;;;;5050143;28;20898;-51
2021/05/30 05:25:13;;;;;;;24.87;18.77;;;;;;;;;;5050072;28;20448;-51
2021/05/30 05:27:39;;;;;;;22.90;16.60;;;;;;;;;;5050247;28;20402;-51
2021/05/30 05:30:05;;;;;;;23.57;17.23;;;;;;;;;;5050222;28;20399;-51
2021/05/30 05:32:31;;;;;;;23.80;17.80;;;;;;;;;;5050023;28;20406;-51
2021/05/30 05:34:57;;;;;;;27.20;17.30;;;;;;;;;;5050057;28;20466;-51
2021/05/30 05:37:23;;;;;;;22.40;16.60;;;;;;;;;;5050139;28;20399;-51
2021/05/30 05:39:49;;;;;;;20.83;17.50;;;;;;;;;;5050135;28;20410;-51
2021/05/30 05:42:15;;;;;;;19.97;15.23;;;;;;;;;;5049743;28;20530;-51
2021/05/30 05:44:41;;;;;;;22.80;16.10;;;;;;;;;;5050153;28;20448;-52
2021/05/30 05:47:07;;;;;;;27.00;17.43;;;;;;;;;;5049908;28;20457;-51
2021/05/30 05:49:35;;;;;;;23.90;17.93;;;;;;;;;;5050116;28;20458;-51
2021/05/30 05:52:01;;;;;;;22.60;17.10;;;;;;;;;;5049811;28;20385;-51
2021/05/30 05:54:27;;;;;;;22.33;15.47;;;;;;;;;;5050271;28;20406;-51
2021/05/30 05:56:54;;;;;;;26.53;17.13;;;;;;;;;;5053547;28;20425;-52
2021/05/30 05:59:19;;;;;;;20.33;14.90;;;;;;;;;;5053629;28;20425;-51
2021/05/30 06:01:45;;;;;;;25.50;16.53;;;;;;;;;;5053260;28;20455;-52
2021/05/30 06:04:11;;;;;;;21.37;15.23;;;;;;;;;;5033817;28;20440;-52
2021/05/30 06:06:37;;;;;;;19.30;15.30;;;;;;;;;;5045615;28;20460;-51
2021/05/30 06:09:03;;;;;;;18.17;14.90;;;;;;;;;;5036815;28;20521;-51
2021/05/30 06:11:29;;;;;;;21.77;15.37;;;;;;;;;;5034405;28;20403;-51
2021/05/30 06:13:55;;;;;;;21.97;14.23;;;;;;;;;;5040355;28;20464;-51
2021/05/30 06:16:21;;;;;;;16.40;13.93;;;;;;;;;;5041805;28;20423;-51
2021/05/30 06:18:47;;;;;;;18.40;14.17;;;;;;;;;;5033193;28;20954;-51
2021/05/30 06:21:13;;;;;;;16.07;13.37;;;;;;;;;;5042233;28;20420;-52
2021/05/30 06:23:39;;;;;;;14.57;12.90;;;;;;;;;;5045977;28;20416;-51
2021/05/30 06:26:10;;;;;;;16.57;14.43;;;;;;;;;;5044995;28;20484;-51
2021/05/30 06:28:36;;;;;;;14.60;11.60;;;;;;;;;;5033078;28;20943;-52
2021/05/30 06:31:02;;;;;;;16.10;12.13;;;;;;;;;;5034361;28;20577;-51
2021/05/30 06:33:28;;;;;;;15.97;12.93;;;;;;;;;;5042922;28;20535;-51
2021/05/30 06:35:54;;;;;;;15.20;11.60;;;;;;;;;;5051381;28;20429;-51
2021/05/30 06:38:20;;;;;;;17.00;11.10;;;;;;;;;;5034930;28;20438;-51
2021/05/30 06:40:46;;;;;;;14.57;11.60;;;;;;;;;;5036526;28;20425;-51
2021/05/30 06:43:12;;;;;;;12.90;10.90;;;;;;;;;;5032416;28;20883;-51
2021/05/30 06:45:38;;;;;;;16.97;13.23;;;;;;;;;;5031027;28;20450;-51
2021/05/30 06:48:05;;;;;;;15.63;12.00;;;;;;;;;;5032824;28;20491;-51
2021/05/30 06:50:31;;;;;;;15.30;11.70;;;;;;;;;;5032678;28;20430;-51
2021/05/30 06:52:57;;;;;;;16.30;11.77;;;;;;;;;;5032344;28;20409;-52
2021/05/30 06:55:23;;;;;;;12.20;11.00;;;;;;;;;;5032670;28;20453;-52
2021/05/30 06:57:50;;;;;;;17.20;11.00;;;;;;;;;;5032758;28;20483;-52
2021/05/30 07:00:16;;;;;;;11.57;9.70;;;;;;;;;;5032630;28;20398;-52
2021/05/30 07:02:42;;;;;;;15.20;9.93;;;;;;;;;;5032666;28;20409;-52
2021/05/30 07:05:09;;;;;;;12.07;10.53;;;;;;;;;;5032364;28;20398;-51
2021/05/30 07:07:35;;;;;;;12.80;10.37;;;;;;;;;;5032595;28;20460;-51
2021/05/30 07:10:01;;;;;;;11.03;9.23;;;;;;;;;;5032618;28;20427;-51
2021/05/30 07:12:27;;;;;;;12.47;8.70;;;;;;;;;;5032562;28;20402;-51
2021/05/30 07:14:54;;;;;;;10.00;7.47;;;;;;;;;;5032381;28;20373;-51
2021/05/30 07:17:19;;;;;;;12.43;8.90;;;;;;;;;;5032388;28;20388;-51
2021/05/30 07:19:50;;;;;;;12.73;8.93;;;;;;;;;;5032160;28;20465;-51
2021/05/30 07:22:16;;;;;;;10.33;8.87;;;;;;;;;;5031918;28;20377;-51
2021/05/30 07:24:42;;;;;;;9.30;8.40;;;;;;;;;;5032092;28;20398;-52
2021/05/30 07:27:08;;;;;;;11.67;8.10;;;;;;;;;;5032154;28;20516;-51
2021/05/30 07:29:34;;;;;;;12.70;7.67;;;;;;;;;;5032145;28;20418;-51
2021/05/30 07:32:00;;;;;;;22.70;14.97;;;;;;;;;;5031831;28;20920;-51
2021/05/30 07:34:26;;;;;;;11.30;8.13;;;;;;;;;;5031902;28;20768;-51
2021/05/30 07:36:52;;;;;;;9.20;7.27;;;;;;;;;;5036137;28;20478;-51
2021/05/30 07:39:18;;;;;;;12.43;7.73;;;;;;;;;;5050967;28;20396;-51
2021/05/30 07:41:44;;;;;;;9.20;7.33;;;;;;;;;;5041284;28;20389;-51
2021/05/30 07:44:10;;;;;;;9.97;7.30;;;;;;;;;;5045918;28;20391;-51
2021/05/30 07:46:37;;;;;;;9.23;7.77;;;;;;;;;;5031088;28;20447;-51
2021/05/30 07:49:04;;;;;;;10.53;7.10;;;;;;;;;;5031649;28;20978;-51
2021/05/30 07:51:30;;;;;;;10.20;6.47;;;;;;;;;;5031256;28;20398;-52
2021/05/30 07:53:56;;;;;;;10.33;7.57;;;;;;;;;;5031482;28;20434;-52
2021/05/30 07:56:22;;;;;;;8.60;6.00;;;;;;;;;;5031353;28;20381;-52
2021/05/30 07:58:48;;;;;;;8.60;7.63;;;;;;;;;;5031397;28;20819;-52
2021/05/30 08:01:14;;;;;;;7.03;6.33;;;;;;;;;;5031150;28;20397;-51
2021/05/30 08:03:40;;;;;;;10.23;6.23;;;;;;;;;;5031874;28;20414;-52
2021/05/30 08:06:06;;;;;;;7.47;6.77;;;;;;;;;;5031079;28;20446;-51
2021/05/30 08:08:32;;;;;;;7.30;6.60;;;;;;;;;;5031323;28;20393;-51
2021/05/30 08:10:58;;;;;;;10.00;7.73;;;;;;;;;;5030994;28;20405;-52
2021/05/30 08:13:24;;;;;;;10.60;6.90;;;;;;;;;;5030827;28;20747;-51
2021/05/30 08:15:50;;;;;;;7.60;6.90;;;;;;;;;;5031159;28;20415;-51
2021/05/30 08:18:16;;;;;;;7.37;6.60;;;;;;;;;;5030023;28;20408;-51
2021/05/30 08:20:42;;;;;;;7.00;6.30;;;;;;;;;;5030954;28;20501;-51
2021/05/30 08:23:08;;;;;;;6.80;5.63;;;;;;;;;;5030607;28;20385;-51
2021/05/30 08:25:34;;;;;;;5.67;5.20;;;;;;;;;;5030995;28;20435;-51
2021/05/30 08:28:00;;;;;;;5.63;5.13;;;;;;;;;;5030865;28;20426;-51
2021/05/30 08:30:26;;;;;;;6.90;5.90;;;;;;;;;;5030977;28;20763;-52
2021/05/30 08:32:52;;;;;;;9.50;6.40;;;;;;;;;;5030516;28;20429;-52
2021/05/30 08:35:18;;;;;;;6.90;6.20;;;;;;;;;;5030735;28;20953;-52
2021/05/30 08:37:45;;;;;;;9.53;6.80;;;;;;;;;;5030832;28;21021;-52
2021/05/30 08:40:13;;;;;;;7.77;6.97;;;;;;;;;;5030962;28;20484;-51
2021/05/30 08:42:39;;;;;;;13.87;5.40;;;;;;;;;;5030538;28;20502;-52
2021/05/30 08:45:05;;;;;;;5.83;5.30;;;;;;;;;;5030910;28;20933;-51
2021/05/30 08:47:31;;;;;;;4.30;4.00;;;;;;;;;;5030679;28;20464;-51
2021/05/30 08:49:57;;;;;;;4.83;4.23;;;;;;;;;;5030537;28;20406;-52
2021/05/30 08:52:23;;;;;;;8.40;4.17;;;;;;;;;;5030489;28;20402;-52
2021/05/30 08:54:49;;;;;;;4.73;4.43;;;;;;;;;;5030726;28;20394;-52
2021/05/30 08:57:15;;;;;;;5.30;4.80;;;;;;;;;;5031257;28;20776;-51
2021/05/30 08:59:51;;;;;;;4.77;4.47;;;;;;;;;;5030616;28;20429;-51
2021/05/30 09:02:17;;;;;;;5.77;5.17;;;;;;;;;;5030684;28;20402;-52
2021/05/30 09:04:45;;;;;;;5.77;4.50;;;;;;;;;;5030837;28;20914;-51
2021/05/30 09:07:11;;;;;;;6.43;5.93;;;;;;;;;;5030873;28;21032;-53
2021/05/30 09:09:40;;;;;;;5.70;5.20;;;;;;;;;;5030730;28;20462;-54
2021/05/30 09:12:10;;;;;;;7.93;4.67;;;;;;;;;;5030779;28;20433;-52
2021/05/30 09:14:46;;;;;;;4.57;4.20;;;;;;;;;;5030352;28;20981;-52
2021/05/30 09:17:12;;;;;;;4.57;4.17;;;;;;;;;;5030835;28;20436;-52
2021/05/30 09:19:43;;;;;;;7.43;4.90;;;;;;;;;;5030489;28;20427;-52
2021/05/30 09:22:16;;;;;;;5.00;4.60;;;;;;;;;;5030364;28;20398;-52
2021/05/30 09:24:57;;;;;;;5.10;4.70;;;;;;;;;;5030229;28;20808;-52
2021/05/30 09:27:24;;;;;;;5.40;4.43;;;;;;;;;;5030272;28;20977;-53
2021/05/30 09:30:08;;;;;;;5.40;4.33;;;;;;;;;;5032720;28;20398;-52
2021/05/30 09:32:52;;;;;;;4.63;4.20;;;;;;;;;;5033984;28;20956;-52
2021/05/30 09:35:18;;;;;;;5.57;4.47;;;;;;;;;;5033960;28;20433;-51
2021/05/30 09:37:44;;;;;;;5.00;4.30;;;;;;;;;;5034093;28;20421;-52
2021/05/30 09:40:10;;;;;;;4.70;4.27;;;;;;;;;;5034001;28;20394;-52
2021/05/30 09:42:38;;;;;;;4.10;3.80;;;;;;;;;;5033756;28;20453;-52
2021/05/30 09:45:03;;;;;;;4.20;3.90;;;;;;;;;;5033934;28;20405;-53
2021/05/30 09:47:32;;;;;;;4.27;3.60;;;;;;;;;;5033874;28;20461;-53
2021/05/30 09:49:58;;;;;;;4.37;4.00;;;;;;;;;;5033780;28;20406;-52
2021/05/30 09:52:56;;;;;;;4.90;3.73;;;;;;;;;;5033506;28;20816;-51
2021/05/30 09:55:27;;;;;;;3.30;3.10;;;;;;;;;;5021568;28;20476;-52
2021/05/30 09:58:11;;;;;;;5.97;4.37;;;;;;;;;;5033783;28;20578;-52
2021/05/30 10:00:37;;;;;;;5.50;3.20;;;;;;;;;;5033495;28;20497;-52
2021/05/30 10:03:03;;;;;;;5.00;3.93;;;;;;;;;;5033565;28;20398;-52
2021/05/30 10:05:30;;;;;;;4.63;4.27;;;;;;;;;;5033434;28;20840;-52
2021/05/30 10:07:56;;;;;;;4.70;4.20;;;;;;;;;;5033494;28;20788;-52
2021/05/30 10:10:22;;;;;;;3.67;3.23;;;;;;;;;;5033618;28;20456;-51
2021/05/30 10:12:48;;;;;;;3.73;3.27;;;;;;;;;;5033167;28;20460;-52
2021/05/30 10:15:14;;;;;;;3.50;3.30;;;;;;;;;;5033440;28;20406;-52
2021/05/30 10:17:41;;;;;;;4.70;3.30;;;;;;;;;;5033197;28;20399;-52
2021/05/30 10:20:08;;;;;;;3.57;3.30;;;;;;;;;;5033438;28;20407;-52
2021/05/30 10:22:35;;;;;;;3.43;3.23;;;;;;;;;;5032977;28;20407;-52
2021/05/30 10:25:00;;;;;;;3.60;3.30;;;;;;;;;;5033281;28;20407;-52
2021/05/30 10:27:27;;;;;;;4.07;2.90;;;;;;;;;;5032894;28;20984;-53
2021/05/30 10:30:08;;;;;;;3.27;2.57;;;;;;;;;;5033153;28;20407;-52
2021/05/30 10:32:41;;;;;;;3.30;3.00;;;;;;;;;;5032890;28;20493;-52
2021/05/30 10:35:16;;;;;;;3.30;3.00;;;;;;;;;;5033002;28;20426;-51
2021/05/30 10:37:46;;;;;;;3.53;3.23;;;;;;;;;;5032928;28;20410;-51
2021/05/30 10:40:21;;;;;;;5.33;3.30;;;;;;;;;;5032457;28;20399;-51
2021/05/30 10:43:06;;;;;;;3.47;3.27;;;;;;;;;;5032684;28;20398;-53
2021/05/30 10:45:32;;;;;;;3.43;3.07;;;;;;;;;;5032944;28;20425;-52
2021/05/30 10:48:03;;;;;;;4.27;2.80;;;;;;;;;;5032630;28;20926;-51
2021/05/30 10:50:35;;;;;;;3.43;3.13;;;;;;;;;;5032810;28;20403;-51
2021/05/30 10:53:01;;;;;;;5.40;2.33;;;;;;;;;;5032423;28;20410;-51
2021/05/30 10:55:28;;;;;;;3.63;2.83;;;;;;;;;;5032796;28;20433;-51
2021/05/30 10:57:54;;;;;;;3.13;2.83;;;;;;;;;;5032609;28;20537;-52
2021/05/30 11:00:20;;;;;;;3.77;3.47;;;;;;;;;;5032762;28;20497;-52
2021/05/30 11:03:02;;;;;;;2.73;2.53;;;;;;;;;;5032507;28;20417;-51
2021/05/30 11:05:40;;;;;;;2.83;2.63;;;;;;;;;;5032518;28;20402;-51
2021/05/30 11:08:06;;;;;;;2.50;2.40;;;;;;;;;;5032379;28;20436;-52
2021/05/30 11:10:34;;;;;;;3.30;3.10;;;;;;;;;;5032830;28;20402;-51
2021/05/30 11:13:02;;;;;;;2.70;2.50;;;;;;;;;;5032249;28;20406;-53
2021/05/30 11:15:29;;;;;;;2.43;2.23;;;;;;;;;;5032921;28;20783;-51
2021/05/30 11:17:56;;;;;;;2.97;2.60;;;;;;;;;;5032388;28;21049;-52
2021/05/30 11:20:22;;;;;;;3.63;2.63;;;;;;;;;;5032781;28;20774;-54
2021/05/30 11:22:52;;;;;;;2.50;2.40;;;;;;;;;;5032039;28;20895;-53
2021/05/30 11:25:20;;;;;;;2.97;2.70;;;;;;;;;;5032378;28;20406;-51
2021/05/30 11:27:49;;;;;;;2.90;2.70;;;;;;;;;;5032188;28;20414;-52
2021/05/30 11:30:33;;;;;;;2.83;2.57;;;;;;;;;;5032091;28;20405;-52
2021/05/30 11:33:00;;;;;;;2.53;2.33;;;;;;;;;;5031763;28;20403;-51
2021/05/30 11:35:26;;;;;;;2.27;2.10;;;;;;;;;;5031963;28;20910;-51
2021/05/30 11:37:52;;;;;;;2.60;2.40;;;;;;;;;;5031946;28;20506;-51
2021/05/30 11:40:19;;;;;;;2.27;2.03;;;;;;;;;;5031896;28;20833;-51
2021/05/30 11:42:46;;;;;;;2.80;2.60;;;;;;;;;;5031579;28;20905;-51
2021/05/30 11:45:41;;;;;;;2.00;1.90;;;;;;;;;;5031666;28;20445;-51
2021/05/30 11:48:09;;;;;;;2.27;2.17;;;;;;;;;;5027042;28;20477;-51
2021/05/30 11:50:36;;;;;;;2.60;2.40;;;;;;;;;;5031549;28;20983;-53
2021/05/30 11:53:06;;;;;;;2.40;2.30;;;;;;;;;;5030409;28;20391;-52
2021/05/30 11:55:32;;;;;;;2.50;2.30;;;;;;;;;;5031668;28;20395;-51
2021/05/30 11:58:04;;;;;;;4.40;2.43;;;;;;;;;;5031723;28;20491;-52
2021/05/30 12:00:31;;;;;;;2.60;2.40;;;;;;;;;;5031367;28;20448;-51
2021/05/30 12:02:57;;;;;;;3.63;2.80;;;;;;;;;;5031285;28;20460;-51
2021/05/30 12:05:22;;;;;;;2.40;2.30;;;;;;;;;;5031235;28;20966;-51
2021/05/30 12:07:49;;;;;;;7.67;3.20;;;;;;;;;;5031357;28;20509;-51
2021/05/30 12:10:16;;;;;;;2.10;2.00;;;;;;;;;;5031154;28;20917;-51
2021/05/30 12:12:43;;;;;;;3.37;2.60;;;;;;;;;;5031071;28;20886;-51
2021/05/30 12:15:09;;;;;;;2.40;2.30;;;;;;;;;;5031151;28;20548;-52
2021/05/30 12:17:36;;;;;;;2.43;2.33;;;;;;;;;;5031174;28;20403;-52
2021/05/30 12:20:02;;;;;;;2.27;2.17;;;;;;;;;;5030921;28;20413;-52
2021/05/30 12:22:29;;;;;;;2.20;2.00;;;;;;;;;;5030876;28;20497;-51
2021/05/30 12:24:56;;;;;;;2.67;2.47;;;;;;;;;;5030952;28;20402;-52
2021/05/30 12:27:22;;;;;;;3.67;2.10;;;;;;;;;;5030968;28;20453;-52
2021/05/30 12:29:49;;;;;;;2.80;2.60;;;;;;;;;;5030814;28;20418;-51
2021/05/30 12:32:16;;;;;;;2.33;2.20;;;;;;;;;;5030800;28;20452;-52
2021/05/30 12:34:42;;;;;;;2.43;2.23;;;;;;;;;;5030764;28;20512;-53
2021/05/30 12:37:08;;;;;;;2.90;2.70;;;;;;;;;;5030760;28;20492;-52
2021/05/30 12:39:34;;;;;;;2.30;2.20;;;;;;;;;;5030908;28;20425;-52
2021/05/30 12:42:06;;;;;;;2.40;2.27;;;;;;;;;;5030532;28;20415;-51
2021/05/30 12:44:38;;;;;;;3.20;2.70;;;;;;;;;;5030866;28;20406;-52
2021/05/30 12:47:09;;;;;;;2.47;2.30;;;;;;;;;;5030583;28;20450;-52
2021/05/30 12:49:36;;;;;;;2.40;2.30;;;;;;;;;;5030750;28;20460;-51
2021/05/30 12:52:05;;;;;;;2.20;2.10;;;;;;;;;;5030476;28;20453;-52
2021/05/30 12:54:32;;;;;;;2.30;2.10;;;;;;;;;;5030760;28;21116;-52
2021/05/30 12:56:59;;;;;;;2.50;2.40;;;;;;;;;;5030694;28;20410;-52
2021/05/30 12:59:26;;;;;;;3.10;2.70;;;;;;;;;;5030639;28;20976;-52
2021/05/30 13:01:53;;;;;;;2.33;2.13;;;;;;;;;;5030220;28;20815;-52
2021/05/30 13:04:27;;;;;;;5.80;2.70;;;;;;;;;;5032515;28;20406;-52
2021/05/30 13:06:54;;;;;;;2.63;2.43;;;;;;;;;;5034572;28;20457;-52
2021/05/30 13:09:20;;;;;;;2.53;2.43;;;;;;;;;;5034781;28;20782;-52
2021/05/30 13:11:46;;;;;;;3.80;2.57;;;;;;;;;;5034468;28;20402;-52
2021/05/30 13:14:26;;;;;;;2.27;2.07;;;;;;;;;;5034549;28;20402;-52
2021/05/30 13:16:52;;;;;;;2.73;2.53;;;;;;;;;;5034635;28;20512;-52
2021/05/30 13:19:18;;;;;;;3.53;3.07;;;;;;;;;;5034789;28;21086;-52
2021/05/30 13:21:44;;;;;;;2.60;2.43;;;;;;;;;;5034339;28;20407;-52
2021/05/30 13:24:13;;;;;;;8.10;5.07;;;;;;;;;;5034489;28;20406;-52
2021/05/30 13:26:45;;;;;;;2.97;2.50;;;;;;;;;;5034259;28;20500;-52
2021/05/30 13:29:21;;;;;;;3.10;2.90;;;;;;;;;;5034364;28;20787;-53
2021/05/30 13:31:47;;;;;;;5.07;2.93;;;;;;;;;;5034153;28;20464;-53
2021/05/30 13:34:13;;;;;;;4.43;4.03;;;;;;;;;;5034367;28;20418;-54
2021/05/30 13:36:39;;;;;;;3.20;2.60;;;;;;;;;;5036139;28;20420;-53
2021/05/30 13:39:05;;;;;;;3.90;3.63;;;;;;;;;;5054014;28;20427;-53
2021/05/30 13:41:31;;;;;;;2.67;2.47;;;;;;;;;;5054148;28;20397;-51
2021/05/30 13:43:58;;;;;;;4.07;2.87;;;;;;;;;;5053788;28;20466;-51
2021/05/30 13:46:26;;;;;;;2.80;2.60;;;;;;;;;;5053861;28;20484;-52
2021/05/30 13:48:52;;;;;;;2.63;2.53;;;;;;;;;;5053770;28;20421;-52
2021/05/30 13:51:19;;;;;;;4.20;2.77;;;;;;;;;;5053628;28;20401;-52
2021/05/30 13:53:47;;;;;;;2.80;2.53;;;;;;;;;;5052927;28;20393;-51
2021/05/30 13:56:13;;;;;;;2.23;2.13;;;;;;;;;;5053453;28;20409;-52
2021/05/30 13:58:39;;;;;;;5.43;2.97;;;;;;;;;;5053454;28;20421;-52
2021/05/30 14:01:06;;;;;;;2.60;2.50;;;;;;;;;;5053622;28;21093;-51
2021/05/30 14:03:32;;;;;;;2.50;2.30;;;;;;;;;;5053543;28;20405;-52
2021/05/30 14:05:58;;;;;;;3.93;3.00;;;;;;;;;;5052661;28;20445;-52
2021/05/30 14:08:24;;;;;;;2.90;2.67;;;;;;;;;;5053067;28;20503;-52
2021/05/30 14:10:50;;;;;;;8.00;3.10;;;;;;;;;;5049824;28;20402;-53
2021/05/30 14:13:16;;;;;;;5.07;2.97;;;;;;;;;;5048752;28;20756;-52
2021/05/30 14:15:42;;;;;;;5.43;3.17;;;;;;;;;;5050431;28;20417;-52
2021/05/30 14:18:08;;;;;;;5.80;2.87;;;;;;;;;;5053342;28;20474;-52
2021/05/30 14:20:34;;;;;;;3.20;2.90;;;;;;;;;;5044024;28;20839;-52
2021/05/30 14:23:00;;;;;;;7.20;2.50;;;;;;;;;;5050764;28;20859;-52
2021/05/30 14:25:26;;;;;;;5.27;3.10;;;;;;;;;;5052787;28;20492;-52
2021/05/30 14:28:00;;;;;;;2.63;2.40;;;;;;;;;;5052333;28;20476;-52
2021/05/30 14:30:26;;;;;;;5.10;2.90;;;;;;;;;;5046456;28;20434;-53